createdAt,value
2023-03-17T00:03:41.835Z,9.68
2023-03-17T00:08:44.367Z,9.98
2023-03-17T00:13:45.991Z,10.57
2023-03-17T00:18:50.051Z,10.38
2023-03-17T00:23:51.780Z,10.43
2023-03-17T00:28:54.257Z,10.57
2023-03-17T00:33:57.450Z,9.93
2023-03-17T00:38:59.698Z,9.48
2023-03-17T00:44:01.301Z,10.57
2023-03-17T00:49:14.177Z,9.75
2023-03-17T00:54:16.515Z,9.77
2023-03-17T00:59:23.917Z,10.77
2023-03-17T01:04:26.993Z,10.40
2023-03-17T01:09:29.147Z,10.88
2023-03-17T01:14:30.630Z,9.90
2023-03-17T01:19:33.519Z,10.60
2023-03-17T01:24:35.154Z,10.23
2023-03-17T01:29:36.720Z,10.93
2023-03-17T01:34:39.540Z,10.95
2023-03-17T01:39:41.086Z,10.25
2023-03-17T01:44:57.394Z,10.90
2023-03-17T01:50:06.023Z,9.82
2023-03-17T01:55:12.061Z,10.07
2023-03-17T02:00:16.601Z,9.13
2023-03-17T02:05:22.272Z,10.98
2023-03-17T02:10:25.815Z,10.35
2023-03-17T02:15:37.334Z,11.60
2023-03-17T02:21:23.285Z,11.38
2023-03-17T02:26:28.636Z,10.30
2023-03-17T02:31:30.314Z,9.68
2023-03-17T02:36:31.885Z,11.05
2023-03-17T02:41:35.531Z,11.10
2023-03-17T02:46:37.126Z,10.90
2023-03-17T02:51:38.725Z,11.98
2023-03-17T02:56:41.647Z,10.20
2023-03-17T03:01:43.341Z,8.95
2023-03-17T03:06:45.367Z,10.25
2023-03-17T03:11:48.394Z,11.88
2023-03-17T03:16:49.958Z,10.48
2023-03-17T03:21:51.528Z,11.27
2023-03-17T03:26:54.454Z,11.07
2023-03-17T03:31:55.981Z,10.82
2023-03-17T03:36:57.534Z,11.75
2023-03-17T03:42:00.390Z,12.02
2023-03-17T03:47:02.035Z,12.98
2023-03-17T03:52:03.957Z,12.38
2023-03-17T03:57:06.768Z,12.18
2023-03-17T04:02:09.632Z,12.52
2023-03-17T04:07:11.496Z,12.63
2023-03-17T04:12:14.509Z,14.30
2023-03-17T04:17:15.968Z,14.55
2023-03-17T04:22:17.650Z,14.73
2023-03-17T04:27:20.686Z,14.80
2023-03-17T04:32:22.231Z,14.93
2023-03-17T04:37:23.994Z,14.52
2023-03-17T04:42:26.926Z,15.52
2023-03-17T04:47:28.477Z,14.82
2023-03-17T04:52:30.208Z,16.17
2023-03-17T04:57:33.040Z,15.40
2023-03-17T05:02:34.943Z,14.90
2023-03-17T05:07:36.615Z,15.10
2023-03-17T05:12:39.412Z,15.38
2023-03-17T05:17:41.053Z,15.07
2023-03-17T05:22:42.792Z,15.90
2023-03-17T05:27:45.621Z,15.40
2023-03-17T05:32:47.225Z,15.27
2023-03-17T05:37:48.807Z,16.23
2023-03-17T05:42:52.105Z,16.88
2023-03-17T05:47:53.761Z,16.67
2023-03-17T05:52:55.260Z,15.98
2023-03-17T05:57:58.177Z,16.95
2023-03-17T06:02:59.731Z,20.05
2023-03-17T06:08:01.685Z,21.45
2023-03-17T06:13:04.639Z,18.40
2023-03-17T06:18:06.185Z,17.23
2023-03-17T06:23:07.769Z,17.05
2023-03-17T06:28:10.650Z,15.02
2023-03-17T06:33:12.546Z,13.50
2023-03-17T06:38:14.129Z,11.93
2023-03-17T06:43:17.306Z,11.98
2023-03-17T06:48:19.048Z,13.18
2023-03-17T06:53:20.974Z,11.10
2023-03-17T06:58:24.089Z,9.63
2023-03-17T07:03:26.805Z,10.18
2023-03-17T07:08:28.330Z,9.30
2023-03-17T07:13:31.181Z,9.43
2023-03-17T07:18:32.783Z,9.65
2023-03-17T07:23:34.371Z,12.95
2023-03-17T07:28:37.284Z,11.88
2023-03-17T07:33:38.847Z,10.27
2023-03-17T07:38:40.511Z,10.40
2023-03-17T07:43:43.304Z,10.13
2023-03-17T07:48:44.893Z,9.63
2023-03-17T07:53:46.781Z,10.40
2023-03-17T07:58:49.706Z,10.63
2023-03-17T08:03:51.366Z,9.82
2023-03-17T08:08:53.183Z,22.95
2023-03-17T08:13:56.173Z,10.00
2023-03-17T08:18:58.038Z,9.65
2023-03-17T08:23:59.742Z,9.98
2023-03-17T08:29:02.788Z,9.70
2023-03-17T08:34:04.465Z,9.32
2023-03-17T08:39:06.021Z,9.80
2023-03-17T08:44:09.388Z,9.10
2023-03-17T08:49:11.518Z,9.10
2023-03-17T08:54:13.170Z,9.55
2023-03-17T08:59:17.010Z,9.82
2023-03-17T09:04:18.726Z,10.55
2023-03-17T09:09:20.317Z,10.02
2023-03-17T09:14:23.186Z,9.70
2023-03-17T09:19:24.995Z,9.48
2023-03-17T09:24:26.469Z,9.95
2023-03-17T09:29:29.303Z,9.70
2023-03-17T09:34:30.970Z,9.82
2023-03-17T09:39:32.694Z,9.60
2023-03-17T09:44:45.899Z,9.75
2023-03-17T09:49:48.982Z,9.88
2023-03-17T09:54:50.617Z,9.93
2023-03-17T09:59:59.904Z,10.07
2023-03-17T10:05:10.966Z,9.52
2023-03-17T10:10:15.443Z,13.20
2023-03-17T10:15:25.240Z,9.55
2023-03-17T10:20:28.696Z,9.30
2023-03-17T10:25:32.561Z,9.77
2023-03-17T10:30:35.741Z,10.20
2023-03-17T10:35:38.434Z,10.73
2023-03-17T10:40:40.040Z,11.20
2023-03-17T10:45:54.921Z,10.50
2023-03-17T10:50:58.006Z,10.45
2023-03-17T10:56:07.070Z,9.90
2023-03-17T11:01:17.459Z,9.80
2023-03-17T11:06:26.414Z,9.32
2023-03-17T11:11:29.744Z,8.98
2023-03-17T11:16:36.952Z,8.73
2023-03-17T11:21:47.880Z,8.55
2023-03-17T11:26:57.791Z,8.68
2023-03-17T11:32:13.225Z,8.82
2023-03-17T11:37:29.680Z,8.40
2023-03-17T11:42:43.056Z,8.57
2023-03-17T11:48:00.012Z,8.60
2023-03-17T11:53:20.573Z,8.50
2023-03-17T11:58:28.865Z,8.65
2023-03-17T12:03:39.680Z,10.65
2023-03-17T12:08:45.305Z,8.07
2023-03-17T12:13:51.437Z,8.30
2023-03-17T12:19:01.679Z,8.88
2023-03-17T12:24:11.057Z,8.30
2023-03-17T12:29:16.734Z,8.75
2023-03-17T12:34:26.737Z,7.63
2023-03-17T12:39:32.158Z,9.20
2023-03-17T12:44:45.582Z,8.38
2023-03-17T12:50:19.046Z,9.18
2023-03-17T12:55:24.638Z,8.10
2023-03-17T13:00:28.855Z,20.80
2023-03-17T13:05:33.155Z,11.15
2023-03-17T13:10:41.359Z,8.45
2023-03-17T13:15:59.984Z,8.40
2023-03-17T13:21:15.122Z,7.55
2023-03-17T13:26:19.356Z,7.65
2023-03-17T13:31:36.199Z,7.35
2023-03-17T13:36:45.545Z,6.25
2023-03-17T13:42:18.070Z,6.80
2023-03-17T13:47:32.337Z,5.43
2023-03-17T13:52:40.894Z,5.50
2023-03-17T13:57:42.592Z,6.63
2023-03-17T14:02:45.208Z,6.65
2023-03-17T14:07:54.288Z,8.70
2023-03-17T14:13:02.940Z,7.38
2023-03-17T14:18:09.260Z,6.93
2023-03-17T14:23:12.132Z,7.88
2023-03-17T14:28:17.274Z,7.57
2023-03-17T14:33:23.707Z,7.15
2023-03-17T14:38:32.004Z,7.20
2023-03-17T14:43:35.046Z,8.13
2023-03-17T14:48:39.918Z,8.18
2023-03-17T14:53:44.004Z,7.80
2023-03-17T14:58:46.392Z,7.22
2023-03-17T15:03:56.411Z,7.95
2023-03-17T15:09:01.755Z,8.27
2023-03-17T15:14:05.957Z,12.73
2023-03-17T15:19:16.994Z,8.20
2023-03-17T15:24:40.550Z,8.38
2023-03-17T15:29:42.269Z,7.90
2023-03-17T15:34:43.757Z,8.35
2023-03-17T15:39:47.553Z,8.23
2023-03-17T15:44:49.075Z,8.93
2023-03-17T15:49:50.798Z,7.40
2023-03-17T15:54:54.950Z,7.65
2023-03-17T15:59:56.462Z,8.38
2023-03-17T16:04:58.878Z,9.20
2023-03-17T16:10:01.824Z,8.18
2023-03-17T16:15:07.745Z,8.82
2023-03-17T16:20:26.471Z,25.50
2023-03-17T16:25:31.847Z,13.95
2023-03-17T16:30:34.619Z,14.65
2023-03-17T16:35:36.410Z,24.45
2023-03-17T16:40:40.226Z,11.93
2023-03-17T16:45:41.730Z,9.20
2023-03-17T16:50:43.917Z,8.93
2023-03-17T16:55:47.058Z,9.60
2023-03-17T17:00:50.858Z,11.25
2023-03-17T17:05:52.382Z,13.30
2023-03-17T17:10:56.277Z,11.95
2023-03-17T17:15:57.881Z,20.58
2023-03-17T17:20:59.397Z,23.00
2023-03-17T17:26:02.377Z,16.05
2023-03-17T17:31:03.931Z,16.67
2023-03-17T17:36:07.906Z,14.95
2023-03-17T17:41:11.769Z,16.90
2023-03-17T17:46:16.690Z,13.10
2023-03-17T17:51:18.274Z,13.98
2023-03-17T17:56:21.266Z,11.70
2023-03-17T18:01:23.421Z,10.05
2023-03-17T18:06:25.054Z,15.65
2023-03-17T18:11:28.001Z,19.77
2023-03-17T18:16:29.516Z,25.00
2023-03-17T18:21:31.256Z,26.02
2023-03-17T18:26:34.465Z,13.55
2023-03-17T18:31:40.121Z,10.57
2023-03-17T18:36:41.831Z,12.23
2023-03-17T18:41:45.470Z,10.00
2023-03-17T18:46:46.999Z,8.85
2023-03-17T18:51:48.540Z,8.77
2023-03-17T18:56:51.360Z,9.98
2023-03-17T19:01:52.886Z,10.55
2023-03-17T19:06:54.388Z,13.25
2023-03-17T19:11:57.320Z,13.75
2023-03-17T19:16:58.983Z,12.82
2023-03-17T19:22:00.835Z,11.07
2023-03-17T19:27:04.088Z,11.05
2023-03-17T19:32:05.593Z,13.45
2023-03-17T19:37:07.275Z,10.30
2023-03-17T19:42:10.165Z,7.10
2023-03-17T19:47:11.694Z,7.47
2023-03-17T19:52:13.261Z,7.25
2023-03-17T19:57:17.079Z,5.95
2023-03-17T20:02:18.658Z,5.15
2023-03-17T20:07:20.384Z,5.55
2023-03-17T20:12:23.291Z,6.40
2023-03-17T20:17:24.842Z,6.13
2023-03-17T20:22:26.619Z,5.78
2023-03-17T20:27:29.503Z,5.43
2023-03-17T20:32:31.101Z,5.47
2023-03-17T20:37:32.714Z,6.07
2023-03-17T20:42:35.826Z,8.77
2023-03-17T20:47:37.750Z,9.77
2023-03-17T20:52:39.659Z,7.07
2023-03-17T20:57:43.880Z,8.70
2023-03-17T21:02:45.859Z,5.28
2023-03-17T21:07:47.589Z,5.53
2023-03-17T21:12:53.012Z,5.40
2023-03-17T21:17:54.904Z,5.15
2023-03-17T21:22:56.574Z,5.00
2023-03-17T21:27:59.599Z,5.38
2023-03-17T21:33:01.336Z,5.00
2023-03-17T21:38:03.822Z,5.38
2023-03-17T21:43:06.717Z,10.85
2023-03-17T21:48:08.217Z,5.22
2023-03-17T21:53:12.612Z,4.80
2023-03-17T21:58:15.501Z,4.72
2023-03-17T22:03:17.899Z,4.57
2023-03-17T22:08:19.559Z,5.00
2023-03-17T22:13:22.490Z,5.00
2023-03-17T22:18:23.998Z,5.20
2023-03-17T22:23:26.624Z,10.10
2023-03-17T22:28:29.638Z,5.18
2023-03-17T22:33:31.234Z,5.30
2023-03-17T22:38:32.785Z,5.10
2023-03-17T22:43:36.248Z,4.93
2023-03-17T22:48:37.764Z,4.35
2023-03-17T22:53:40.258Z,5.65
2023-03-17T22:58:43.836Z,5.57
2023-03-17T23:03:45.766Z,4.38
2023-03-17T23:08:47.821Z,3.92
2023-03-17T23:13:51.814Z,3.08
2023-03-17T23:18:53.385Z,3.35
2023-03-17T23:23:55.572Z,2.90
2023-03-17T23:28:58.420Z,3.03
2023-03-17T23:34:00.351Z,3.65
2023-03-17T23:39:02.185Z,3.50
2023-03-17T23:44:05.171Z,4.00
2023-03-17T23:49:07.017Z,2.40
2023-03-17T23:54:08.510Z,2.50
2023-03-17T23:59:11.416Z,2.63
